createdAt,value
2022-11-20T00:02:15.389Z,1005.63
2022-11-20T00:05:23.135Z,1005.54
2022-11-20T00:08:30.893Z,1005.49
2022-11-20T00:11:38.143Z,1005.54
2022-11-20T00:14:45.544Z,1005.45
2022-11-20T00:17:52.893Z,1005.38
2022-11-20T00:21:00.274Z,1005.34
2022-11-20T00:24:07.935Z,1005.39
2022-11-20T00:27:15.364Z,1005.30
2022-11-20T00:30:22.788Z,1005.33
2022-11-20T00:33:30.785Z,1005.35
2022-11-20T00:36:38.286Z,1005.34
2022-11-20T00:39:45.775Z,1005.31
2022-11-20T00:42:53.195Z,1005.33
2022-11-20T00:46:01.056Z,1005.33
2022-11-20T00:49:08.375Z,1005.41
2022-11-20T00:52:15.773Z,1005.36
2022-11-20T00:55:23.553Z,1005.35
2022-11-20T00:58:30.996Z,1005.37
2022-11-20T01:01:38.315Z,1005.34
2022-11-20T01:04:45.866Z,1005.36
2022-11-20T01:07:53.414Z,1005.39
2022-11-20T01:11:00.507Z,1005.35
2022-11-20T01:14:10.506Z,1005.30
2022-11-20T01:17:17.494Z,1005.26
2022-11-20T01:20:24.956Z,1005.28
2022-11-20T01:23:31.987Z,1005.23
2022-11-20T01:26:39.076Z,1005.16
2022-11-20T01:29:46.116Z,1005.16
2022-11-20T01:32:52.617Z,1005.13
2022-11-20T01:35:59.997Z,1005.08
2022-11-20T01:39:06.597Z,1005.01
2022-11-20T01:42:13.917Z,1005.03
2022-11-20T01:45:20.899Z,1004.98
2022-11-20T01:48:27.889Z,1004.94
2022-11-20T01:51:34.976Z,1004.94
2022-11-20T01:54:42.335Z,1004.99
2022-11-20T01:57:48.889Z,1004.93
2022-11-20T02:00:56.254Z,1004.81
2022-11-20T02:04:02.777Z,1004.83
2022-11-20T02:07:10.283Z,1004.73
2022-11-20T02:10:17.235Z,1004.71
2022-11-20T02:13:24.263Z,1004.77
2022-11-20T02:16:31.199Z,1004.73
2022-11-20T02:19:38.275Z,1004.74
2022-11-20T02:22:45.337Z,1004.76
2022-11-20T02:25:53.270Z,1004.65
2022-11-20T02:28:59.857Z,1004.65
2022-11-20T02:32:07.400Z,1004.62
2022-11-20T02:35:14.081Z,1004.64
2022-11-20T02:38:21.331Z,1004.57
2022-11-20T02:41:28.192Z,1004.60
2022-11-20T02:44:35.301Z,1004.56
2022-11-20T02:47:42.290Z,1004.57
2022-11-20T02:50:49.151Z,1004.49
2022-11-20T02:53:55.991Z,1004.56
2022-11-20T02:57:03.511Z,1004.54
2022-11-20T03:00:10.150Z,1004.57
2022-11-20T03:03:17.582Z,1004.52
2022-11-20T03:06:24.203Z,1004.50
2022-11-20T03:09:31.612Z,1004.47
2022-11-20T03:12:38.724Z,1004.56
2022-11-20T03:15:45.681Z,1004.53
2022-11-20T03:18:52.802Z,1004.48
2022-11-20T03:21:59.982Z,1004.53
2022-11-20T03:25:06.489Z,1004.46
2022-11-20T03:28:14.065Z,1004.51
2022-11-20T03:31:20.603Z,1004.50
2022-11-20T03:34:28.204Z,1004.50
2022-11-20T03:37:35.302Z,1004.41
2022-11-20T03:40:42.333Z,1004.44
2022-11-20T03:43:49.309Z,1004.46
2022-11-20T03:46:56.372Z,1004.38
2022-11-20T03:50:03.333Z,1004.35
2022-11-20T03:53:10.855Z,1004.27
2022-11-20T03:56:17.496Z,1004.31
2022-11-20T03:59:25.266Z,1004.27
2022-11-20T04:02:31.788Z,1004.14
2022-11-20T04:05:39.236Z,1004.14
2022-11-20T04:08:50.988Z,1004.17
2022-11-20T04:11:49.155Z,1004.15
2022-11-20T04:14:56.300Z,1004.11
2022-11-20T04:18:03.319Z,1004.06
2022-11-20T04:21:10.105Z,1004.03
2022-11-20T04:24:17.665Z,1004.08
2022-11-20T04:27:24.338Z,1004.11
2022-11-20T04:30:31.757Z,1004.07
2022-11-20T04:33:38.767Z,1004.12
2022-11-20T04:36:45.589Z,1004.04
2022-11-20T04:39:52.710Z,1003.99
2022-11-20T04:42:59.666Z,1003.97
2022-11-20T04:46:06.603Z,1004.00
2022-11-20T04:49:13.987Z,1004.06
2022-11-20T04:52:20.607Z,1004.02
2022-11-20T04:55:28.216Z,1004.05
2022-11-20T04:58:34.862Z,1003.97
2022-11-20T05:01:42.387Z,1003.88
2022-11-20T05:04:49.324Z,1003.86
2022-11-20T05:07:56.284Z,1003.92
2022-11-20T05:11:03.268Z,1003.88
2022-11-20T05:14:10.297Z,1003.98
2022-11-20T05:17:17.661Z,1003.86
2022-11-20T05:20:25.068Z,1003.89
2022-11-20T05:23:31.558Z,1003.95
2022-11-20T05:26:39.108Z,1003.92
2022-11-20T05:29:46.098Z,1003.98
2022-11-20T05:32:53.028Z,1003.96
2022-11-20T05:36:00.031Z,1004.00
2022-11-20T05:39:07.019Z,1004.01
2022-11-20T05:42:14.202Z,1003.90
2022-11-20T05:45:21.664Z,1003.93
2022-11-20T05:48:28.260Z,1003.86
2022-11-20T05:51:35.609Z,1003.84
2022-11-20T05:54:42.238Z,1003.71
2022-11-20T05:57:49.802Z,1003.66
2022-11-20T06:00:56.880Z,1003.53
2022-11-20T06:04:03.929Z,1003.50
2022-11-20T06:07:11.009Z,1003.49
2022-11-20T06:10:18.191Z,1003.49
2022-11-20T06:13:25.360Z,1003.55
2022-11-20T06:16:32.652Z,1003.64
2022-11-20T06:19:39.230Z,1003.65
2022-11-20T06:22:46.780Z,1003.74
2022-11-20T06:25:53.421Z,1003.83
2022-11-20T06:29:00.818Z,1003.85
2022-11-20T06:32:07.935Z,1003.75
2022-11-20T06:35:14.923Z,1003.73
2022-11-20T06:38:21.922Z,1003.64
2022-11-20T06:41:29.332Z,1003.64
2022-11-20T06:44:36.002Z,1003.60
2022-11-20T06:47:43.399Z,1003.54
2022-11-20T06:50:49.993Z,1003.59
2022-11-20T06:53:57.320Z,1003.57
2022-11-20T06:57:04.392Z,1003.56
2022-11-20T07:00:11.514Z,1003.46
2022-11-20T07:03:18.791Z,1003.48
2022-11-20T07:06:26.051Z,1003.42
2022-11-20T07:09:33.770Z,1003.41
2022-11-20T07:12:41.364Z,1003.41
2022-11-20T07:15:47.983Z,1003.43
2022-11-20T07:18:55.135Z,1003.48
2022-11-20T07:22:01.812Z,1003.45
2022-11-20T07:25:09.325Z,1003.49
2022-11-20T07:28:16.490Z,1003.42
2022-11-20T07:31:23.565Z,1003.45
2022-11-20T07:34:30.478Z,1003.43
2022-11-20T07:37:38.455Z,1003.41
2022-11-20T07:40:45.907Z,1003.48
2022-11-20T07:43:53.306Z,1003.47
2022-11-20T07:46:59.906Z,1003.48
2022-11-20T07:50:07.265Z,1003.49
2022-11-20T07:53:14.204Z,1003.47
2022-11-20T07:56:21.177Z,1003.49
2022-11-20T07:59:29.054Z,1003.48
2022-11-20T08:02:37.535Z,1003.48
2022-11-20T08:05:44.427Z,1003.48
2022-11-20T08:08:52.757Z,1003.34
2022-11-20T08:11:59.577Z,1003.38
2022-11-20T08:15:12.564Z,1003.43
2022-11-20T08:18:31.202Z,1003.37
2022-11-20T08:21:14.198Z,1003.37
2022-11-20T08:24:21.341Z,1003.45
2022-11-20T08:27:28.360Z,1003.41
2022-11-20T08:30:35.467Z,1003.49
2022-11-20T08:33:42.436Z,1003.57
2022-11-20T08:36:49.329Z,1003.59
2022-11-20T08:39:57.892Z,1003.59
2022-11-20T08:43:04.550Z,1003.52
2022-11-20T08:46:12.059Z,1003.54
2022-11-20T08:49:19.266Z,1003.55
2022-11-20T08:52:27.359Z,1003.55
2022-11-20T08:55:34.419Z,1003.54
2022-11-20T08:59:09.888Z,1003.52
2022-11-20T09:01:45.801Z,1003.43
2022-11-20T09:04:53.671Z,1003.45
2022-11-20T09:08:00.326Z,1003.45
2022-11-20T09:11:08.040Z,1003.40
2022-11-20T09:14:15.105Z,1003.34
2022-11-20T09:17:22.113Z,1003.31
2022-11-20T09:20:29.233Z,1003.31
2022-11-20T09:23:36.344Z,1003.29
2022-11-20T09:26:43.466Z,1003.20
2022-11-20T09:29:50.453Z,1003.19
2022-11-20T09:32:57.143Z,1003.16
2022-11-20T09:35:57.843Z,1003.12
2022-11-20T09:39:04.802Z,1003.04
2022-11-20T09:42:11.655Z,1003.00
2022-11-20T09:45:18.544Z,1003.06
2022-11-20T09:48:25.869Z,1003.06
2022-11-20T09:51:33.825Z,1003.05
2022-11-20T09:54:41.376Z,1003.02
2022-11-20T09:57:49.556Z,1003.00
2022-11-20T10:00:56.526Z,1003.03
2022-11-20T10:04:04.328Z,1002.95
2022-11-20T10:07:31.564Z,1002.94
2022-11-20T10:10:16.187Z,1002.87
2022-11-20T10:13:23.957Z,1002.89
2022-11-20T10:16:32.846Z,1002.80
2022-11-20T10:19:31.655Z,1002.85
2022-11-20T10:22:39.008Z,1002.81
2022-11-20T10:25:46.432Z,1002.81
2022-11-20T10:28:58.775Z,1002.92
2022-11-20T10:31:56.219Z,1002.88
2022-11-20T10:35:03.089Z,1002.89
2022-11-20T10:38:10.387Z,1002.89
2022-11-20T10:41:17.438Z,1002.79
2022-11-20T10:44:24.551Z,1002.82
2022-11-20T10:47:31.518Z,1002.84
2022-11-20T10:50:38.511Z,1002.82
2022-11-20T10:53:45.992Z,1002.70
2022-11-20T10:56:52.911Z,1002.78
2022-11-20T10:59:59.923Z,1002.75
2022-11-20T11:03:07.282Z,1002.65
2022-11-20T11:06:14.239Z,1002.63
2022-11-20T11:09:21.909Z,1002.64
2022-11-20T11:12:29.114Z,1002.55
2022-11-20T11:15:36.115Z,1002.50
2022-11-20T11:18:43.084Z,1002.46
2022-11-20T11:21:55.126Z,1002.53
2022-11-20T11:24:51.753Z,1002.60
2022-11-20T11:27:59.125Z,1002.51
2022-11-20T11:31:06.945Z,1002.54
2022-11-20T11:34:13.883Z,1002.48
2022-11-20T11:37:22.726Z,1002.50
2022-11-20T11:40:30.555Z,1002.48
2022-11-20T11:43:38.098Z,1002.51
2022-11-20T11:46:45.738Z,1002.49
2022-11-20T11:49:52.477Z,1002.48
2022-11-20T11:53:00.375Z,1002.43
2022-11-20T11:56:08.078Z,1002.30
2022-11-20T11:59:15.089Z,1002.31
2022-11-20T12:02:22.347Z,1002.36
2022-11-20T12:05:29.328Z,1002.27
2022-11-20T12:08:36.229Z,1002.26
2022-11-20T12:11:43.228Z,1002.27
2022-11-20T12:14:50.148Z,1002.37
2022-11-20T12:17:57.390Z,1002.33
2022-11-20T12:21:04.741Z,1002.25
2022-11-20T12:24:11.983Z,1002.25
2022-11-20T12:27:19.351Z,1002.24
2022-11-20T12:30:26.579Z,1002.21
2022-11-20T12:33:34.309Z,1002.25
2022-11-20T12:36:41.662Z,1002.14
2022-11-20T12:39:48.732Z,1002.13
2022-11-20T12:42:56.372Z,1002.05
2022-11-20T12:46:03.153Z,1002.17
2022-11-20T12:49:10.604Z,1002.12
2022-11-20T12:52:18.024Z,1002.18
2022-11-20T12:55:25.053Z,1002.12
2022-11-20T12:58:32.641Z,1002.10
2022-11-20T13:01:40.174Z,1002.01
2022-11-20T13:04:47.041Z,1002.01
2022-11-20T13:07:54.626Z,1001.99
2022-11-20T13:11:01.688Z,1001.98
2022-11-20T13:14:09.118Z,1002.01
2022-11-20T13:17:16.606Z,1002.01
2022-11-20T13:20:23.358Z,1002.02
2022-11-20T13:23:31.127Z,1002.05
2022-11-20T13:26:38.346Z,1002.00
2022-11-20T13:29:45.248Z,1001.94
2022-11-20T13:32:53.029Z,1001.89
2022-11-20T13:36:00.216Z,1001.91
2022-11-20T13:39:07.399Z,1001.86
2022-11-20T13:42:14.628Z,1001.91
2022-11-20T13:45:22.251Z,1001.91
2022-11-20T13:48:29.389Z,1001.89
2022-11-20T13:51:36.659Z,1001.83
2022-11-20T13:54:43.933Z,1001.86
2022-11-20T13:57:51.221Z,1001.88
2022-11-20T14:00:58.302Z,1001.82
2022-11-20T14:04:06.730Z,1001.78
2022-11-20T14:07:13.785Z,1001.75
2022-11-20T14:10:21.080Z,1001.70
2022-11-20T14:13:28.384Z,1001.70
2022-11-20T14:16:35.046Z,1001.76
2022-11-20T14:19:42.361Z,1001.74
2022-11-20T14:22:49.710Z,1001.79
2022-11-20T14:25:56.428Z,1001.73
2022-11-20T14:29:03.841Z,1001.77
2022-11-20T14:32:10.945Z,1001.77
2022-11-20T14:35:18.155Z,1001.79
2022-11-20T14:38:26.075Z,1001.79
2022-11-20T14:41:32.857Z,1001.78
2022-11-20T14:44:39.964Z,1001.78
2022-11-20T14:47:47.065Z,1001.75
2022-11-20T14:50:54.210Z,1001.69
2022-11-20T14:54:01.467Z,1001.68
2022-11-20T14:57:08.504Z,1001.60
2022-11-20T15:00:15.637Z,1001.53
2022-11-20T15:03:25.528Z,1001.53
2022-11-20T15:06:24.168Z,1001.42
2022-11-20T15:09:31.219Z,1001.35
2022-11-20T15:12:38.855Z,1001.36
2022-11-20T15:15:45.863Z,1001.32
2022-11-20T15:18:52.870Z,1001.36
2022-11-20T15:21:59.853Z,1001.35
2022-11-20T15:25:07.203Z,1001.30
2022-11-20T15:28:14.250Z,1001.32
2022-11-20T15:31:21.430Z,1001.26
2022-11-20T15:34:28.851Z,1001.24
2022-11-20T15:37:35.482Z,1001.22
2022-11-20T15:40:42.830Z,1001.18
2022-11-20T15:43:50.241Z,1001.12
2022-11-20T15:46:56.811Z,1001.21
2022-11-20T15:50:04.114Z,1001.14
2022-11-20T15:53:11.474Z,1001.07
2022-11-20T15:56:18.212Z,1001.02
2022-11-20T15:59:25.651Z,1001.07
2022-11-20T16:02:32.571Z,1000.98
2022-11-20T16:05:39.552Z,1001.07
2022-11-20T16:08:46.877Z,1001.09
2022-11-20T16:11:53.875Z,1001.08
2022-11-20T16:15:00.903Z,1000.98
2022-11-20T16:18:07.606Z,1001.05
2022-11-20T16:21:14.699Z,1000.95
2022-11-20T16:24:22.044Z,1000.93
2022-11-20T16:27:29.084Z,1000.92
2022-11-20T16:30:36.031Z,1000.88
2022-11-20T16:33:42.963Z,1000.88
2022-11-20T16:36:49.953Z,1000.85
2022-11-20T16:39:57.026Z,1000.79
2022-11-20T16:43:04.298Z,1000.75
2022-11-20T16:46:11.336Z,1000.71
2022-11-20T16:49:17.957Z,1000.68
2022-11-20T16:52:24.877Z,1000.63
2022-11-20T16:55:32.108Z,1000.65
2022-11-20T16:58:39.107Z,1000.70
2022-11-20T17:01:46.313Z,1000.72
2022-11-20T17:04:53.470Z,1000.67
2022-11-20T17:08:00.379Z,1000.61
2022-11-20T17:11:07.428Z,1000.61
2022-11-20T17:14:14.658Z,1000.61
2022-11-20T17:17:21.239Z,1000.63
2022-11-20T17:20:28.520Z,1000.53
2022-11-20T17:23:35.480Z,1000.53
2022-11-20T17:26:42.522Z,1000.57
2022-11-20T17:29:49.588Z,1000.52
2022-11-20T17:32:56.472Z,1000.45
2022-11-20T17:36:03.384Z,1000.43
2022-11-20T17:39:10.562Z,1000.50
2022-11-20T17:42:17.121Z,1000.42
2022-11-20T17:45:24.612Z,1000.52
2022-11-20T17:48:32.000Z,1000.52
2022-11-20T17:51:38.552Z,1000.55
2022-11-20T17:54:45.842Z,1000.54
2022-11-20T17:57:53.087Z,1000.51
2022-11-20T18:00:59.633Z,1000.44
2022-11-20T18:04:06.847Z,1000.40
2022-11-20T18:07:13.613Z,1000.39
2022-11-20T18:10:21.058Z,1000.33
2022-11-20T18:13:28.324Z,1000.31
2022-11-20T18:16:35.114Z,1000.31
2022-11-20T18:20:00.708Z,1000.28
2022-11-20T18:22:47.493Z,1000.24
2022-11-20T18:25:54.146Z,1000.25
2022-11-20T18:29:06.169Z,1000.16
2022-11-20T18:32:03.522Z,1000.08
2022-11-20T18:35:11.016Z,1000.08
2022-11-20T18:38:18.181Z,1000.07
2022-11-20T18:41:25.362Z,1000.07
2022-11-20T18:44:32.795Z,1000.06
2022-11-20T18:47:39.535Z,999.92
2022-11-20T18:50:46.828Z,999.82
2022-11-20T18:53:54.488Z,999.86
2022-11-20T18:57:01.208Z,999.82
2022-11-20T19:00:09.743Z,999.71
2022-11-20T19:03:17.436Z,999.69
2022-11-20T19:06:24.095Z,999.65
2022-11-20T19:09:30.868Z,999.61
2022-11-20T19:12:38.462Z,999.62
2022-11-20T19:15:45.486Z,999.50
2022-11-20T19:18:53.229Z,999.48
2022-11-20T19:22:00.961Z,999.51
2022-11-20T19:25:07.748Z,999.45
2022-11-20T19:28:14.658Z,999.41
2022-11-20T19:31:24.426Z,999.41
2022-11-20T19:34:32.071Z,999.28
2022-11-20T19:37:39.068Z,999.36
2022-11-20T19:40:46.030Z,999.29
2022-11-20T19:43:53.280Z,999.25
2022-11-20T19:46:59.889Z,999.22
2022-11-20T19:50:06.979Z,999.21
2022-11-20T19:53:14.790Z,999.21
2022-11-20T19:56:21.421Z,999.19
2022-11-20T19:59:28.396Z,999.22
2022-11-20T20:02:35.371Z,999.09
2022-11-20T20:05:42.202Z,999.12
2022-11-20T20:08:49.541Z,999.13
2022-11-20T20:11:56.582Z,999.10
2022-11-20T20:15:03.282Z,999.15
2022-11-20T20:18:10.585Z,999.05
2022-11-20T20:21:17.262Z,999.00
2022-11-20T20:24:24.173Z,998.99
2022-11-20T20:27:31.657Z,999.00
2022-11-20T20:30:38.273Z,998.96
2022-11-20T20:33:44.844Z,998.92
2022-11-20T20:36:52.112Z,998.83
2022-11-20T20:39:58.777Z,998.80
2022-11-20T20:43:05.695Z,998.82
2022-11-20T20:46:12.596Z,998.79
2022-11-20T20:49:20.880Z,998.80
2022-11-20T20:52:28.776Z,998.72
2022-11-20T20:55:37.434Z,998.67
2022-11-20T20:58:45.055Z,998.68
2022-11-20T21:01:51.732Z,998.60
2022-11-20T21:04:58.918Z,998.54
2022-11-20T21:08:05.976Z,998.51
2022-11-20T21:11:12.678Z,998.43
2022-11-20T21:14:20.119Z,998.37
2022-11-20T21:17:27.164Z,998.21
2022-11-20T21:20:33.841Z,998.17
2022-11-20T21:23:41.018Z,998.01
2022-11-20T21:26:47.668Z,998.05
2022-11-20T21:29:54.849Z,997.93
2022-11-20T21:33:02.126Z,997.82
2022-11-20T21:36:08.769Z,997.85
2022-11-20T21:39:15.969Z,997.79
2022-11-20T21:42:23.239Z,997.76
2022-11-20T21:45:29.779Z,997.63
2022-11-20T21:48:37.129Z,997.63
2022-11-20T21:51:44.020Z,997.58
2022-11-20T21:54:50.900Z,997.52
2022-11-20T21:57:58.350Z,997.54
2022-11-20T22:01:05.360Z,997.48
2022-11-20T22:04:12.301Z,997.32
2022-11-20T22:07:19.738Z,997.32
2022-11-20T22:10:26.602Z,997.28
2022-11-20T22:13:33.541Z,997.32
2022-11-20T22:16:40.474Z,997.30
2022-11-20T22:19:47.322Z,997.25
2022-11-20T22:22:54.267Z,997.20
2022-11-20T22:26:01.182Z,997.16
2022-11-20T22:29:08.353Z,997.12
2022-11-20T22:32:15.301Z,997.12
2022-11-20T22:35:22.334Z,997.15
2022-11-20T22:38:29.857Z,997.10
2022-11-20T22:41:36.359Z,997.17
2022-11-20T22:44:43.649Z,997.11
2022-11-20T22:47:50.562Z,997.12
2022-11-20T22:50:57.097Z,997.15
2022-11-20T22:54:04.225Z,997.12
2022-11-20T22:57:11.186Z,997.06
2022-11-20T23:00:18.206Z,997.02
2022-11-20T23:03:25.504Z,997.08
2022-11-20T23:06:32.376Z,997.02
2022-11-20T23:09:39.327Z,997.03
2022-11-20T23:12:46.538Z,997.01
2022-11-20T23:15:53.137Z,996.96
2022-11-20T23:19:00.293Z,996.94
2022-11-20T23:22:07.608Z,996.92
2022-11-20T23:25:14.199Z,996.91
2022-11-20T23:28:21.319Z,997.01
2022-11-20T23:31:28.342Z,996.94
2022-11-20T23:34:35.359Z,996.96
2022-11-20T23:37:42.759Z,996.98
2022-11-20T23:40:49.649Z,997.01
2022-11-20T23:43:56.661Z,996.96
2022-11-20T23:47:04.095Z,996.90
2022-11-20T23:50:10.920Z,996.92
2022-11-20T23:53:17.898Z,996.90
2022-11-20T23:56:24.971Z,996.87
2022-11-20T23:59:31.932Z,996.86
